createdAt,value
2022-11-05T00:00:10.303Z,4.80
2022-11-05T00:05:16.607Z,4.84
2022-11-05T00:10:22.779Z,4.81
2022-11-05T00:16:12.768Z,4.97
2022-11-05T00:21:18.890Z,4.59
2022-11-05T00:26:25.180Z,4.29
2022-11-05T00:31:31.266Z,4.71
2022-11-05T00:36:37.441Z,5.04
2022-11-05T00:41:43.557Z,4.21
2022-11-05T00:46:49.808Z,4.94
2022-11-05T00:51:55.886Z,4.89
2022-11-05T00:57:04.768Z,4.72
2022-11-05T01:02:07.924Z,4.71
2022-11-05T01:07:13.961Z,4.63
2022-11-05T01:12:20.160Z,4.48
2022-11-05T01:17:26.411Z,4.87
2022-11-05T01:22:32.490Z,4.53
2022-11-05T01:27:38.766Z,5.14
2022-11-05T01:32:44.845Z,4.37
2022-11-05T01:37:51.295Z,4.62
2022-11-05T01:42:57.347Z,4.83
2022-11-05T01:48:03.497Z,4.75
2022-11-05T01:53:09.826Z,4.81
2022-11-05T01:58:15.921Z,4.70
2022-11-05T02:03:22.074Z,4.37
2022-11-05T02:08:28.273Z,4.37
2022-11-05T02:13:34.668Z,4.53
2022-11-05T02:18:40.963Z,4.44
2022-11-05T02:23:47.095Z,4.62
2022-11-05T02:28:53.313Z,4.52
2022-11-05T02:33:59.642Z,4.61
2022-11-05T02:39:05.901Z,4.35
2022-11-05T02:44:11.961Z,4.30
2022-11-05T02:49:18.558Z,4.13
2022-11-05T02:54:24.629Z,4.69
2022-11-05T02:59:31.221Z,4.49
2022-11-05T03:04:37.308Z,4.08
2022-11-05T03:09:43.451Z,3.72
2022-11-05T03:14:49.502Z,3.85
2022-11-05T03:19:55.698Z,3.97
2022-11-05T03:25:01.726Z,3.85
2022-11-05T03:30:07.988Z,3.88
2022-11-05T03:35:14.175Z,3.91
2022-11-05T03:40:20.365Z,3.68
2022-11-05T03:45:27.320Z,3.79
2022-11-05T03:50:37.143Z,3.81
2022-11-05T03:55:39.057Z,3.77
2022-11-05T04:00:45.247Z,3.83
2022-11-05T04:05:51.316Z,3.75
2022-11-05T04:10:57.487Z,4.07
2022-11-05T04:16:03.529Z,4.41
2022-11-05T04:21:09.795Z,4.14
2022-11-05T04:26:15.853Z,3.82
2022-11-05T04:31:22.017Z,3.82
2022-11-05T04:36:28.075Z,3.72
2022-11-05T04:41:34.528Z,3.35
2022-11-05T04:46:40.600Z,3.64
2022-11-05T04:51:46.820Z,4.05
2022-11-05T04:56:52.951Z,3.69
2022-11-05T05:01:59.265Z,3.50
2022-11-05T05:07:05.208Z,3.63
2022-11-05T05:12:11.419Z,3.55
2022-11-05T05:17:17.496Z,3.43
2022-11-05T05:22:23.998Z,3.57
2022-11-05T05:27:30.067Z,3.64
2022-11-05T05:32:37.010Z,3.69
2022-11-05T05:37:43.404Z,3.48
2022-11-05T05:42:50.381Z,3.67
2022-11-05T05:47:57.221Z,3.24
2022-11-05T05:53:03.747Z,3.73
2022-11-05T05:58:09.835Z,3.66
2022-11-05T06:03:15.987Z,3.80
2022-11-05T06:08:22.079Z,3.67
2022-11-05T06:13:28.563Z,3.68
2022-11-05T06:18:34.693Z,4.17
2022-11-05T06:23:40.943Z,3.84
2022-11-05T06:28:47.056Z,4.18
2022-11-05T06:33:53.290Z,4.52
2022-11-05T06:38:59.342Z,4.42
2022-11-05T06:44:05.530Z,4.45
2022-11-05T06:49:11.647Z,4.62
2022-11-05T06:54:18.945Z,5.04
2022-11-05T06:59:25.079Z,4.85
2022-11-05T07:04:31.240Z,5.43
2022-11-05T07:09:37.294Z,4.83
2022-11-05T07:14:43.899Z,5.08
2022-11-05T07:19:49.973Z,4.60
2022-11-05T07:24:56.127Z,5.29
2022-11-05T07:30:02.194Z,5.61
2022-11-05T07:35:08.467Z,5.12
2022-11-05T07:40:14.847Z,4.92
2022-11-05T07:45:21.061Z,5.38
2022-11-05T07:50:27.598Z,6.05
2022-11-05T07:55:34.024Z,6.17
2022-11-05T08:00:40.204Z,5.89
2022-11-05T08:05:46.287Z,5.81
2022-11-05T08:10:52.322Z,5.59
2022-11-05T08:15:58.506Z,5.56
2022-11-05T08:21:04.584Z,5.44
2022-11-05T08:26:10.705Z,5.15
2022-11-05T08:31:16.764Z,5.49
2022-11-05T08:36:23.224Z,5.06
2022-11-05T08:41:29.320Z,5.38
2022-11-05T08:46:40.374Z,4.97
2022-11-05T08:51:41.109Z,4.77
2022-11-05T08:56:47.571Z,4.48
2022-11-05T09:01:53.836Z,4.42
2022-11-05T09:06:59.831Z,4.26
2022-11-05T09:12:12.255Z,4.18
2022-11-05T09:17:11.827Z,4.03
2022-11-05T09:22:17.927Z,4.01
2022-11-05T09:27:24.063Z,4.06
2022-11-05T09:32:30.221Z,3.98
2022-11-05T09:37:36.450Z,4.19
2022-11-05T09:42:42.548Z,4.33
2022-11-05T09:47:48.702Z,3.73
2022-11-05T09:52:54.862Z,3.99
2022-11-05T09:58:01.052Z,3.89
2022-11-05T10:03:10.470Z,3.79
2022-11-05T10:08:15.964Z,4.03
2022-11-05T10:13:22.031Z,3.80
2022-11-05T10:18:42.213Z,3.76
2022-11-05T10:23:48.327Z,3.73
2022-11-05T10:28:54.557Z,3.86
2022-11-05T10:34:00.712Z,3.38
2022-11-05T10:39:07.720Z,3.56
2022-11-05T10:44:18.674Z,3.66
2022-11-05T10:49:19.578Z,3.79
2022-11-05T10:54:25.721Z,3.82
2022-11-05T10:59:32.022Z,3.86
2022-11-05T11:04:38.394Z,3.69
2022-11-05T11:09:44.509Z,3.76
2022-11-05T11:14:50.638Z,3.67
2022-11-05T11:19:56.789Z,3.81
2022-11-05T11:25:03.169Z,3.50
2022-11-05T11:30:09.522Z,3.69
2022-11-05T11:35:15.650Z,3.63
2022-11-05T11:40:22.242Z,4.40
2022-11-05T11:45:28.304Z,3.71
2022-11-05T11:50:34.576Z,3.57
2022-11-05T11:55:40.687Z,3.75
2022-11-05T12:00:47.030Z,3.46
2022-11-05T12:05:53.117Z,3.42
2022-11-05T12:10:59.274Z,3.39
2022-11-05T12:16:05.362Z,3.43
2022-11-05T12:21:11.653Z,3.78
2022-11-05T12:26:17.794Z,3.47
2022-11-05T12:31:24.026Z,3.47
2022-11-05T12:36:30.514Z,3.52
2022-11-05T12:41:36.827Z,3.58
2022-11-05T12:46:43.291Z,3.50
2022-11-05T12:51:49.449Z,3.86
2022-11-05T12:56:55.605Z,3.89
2022-11-05T13:02:02.119Z,3.99
2022-11-05T13:07:07.963Z,3.65
2022-11-05T13:12:14.211Z,3.70
2022-11-05T13:17:20.852Z,3.38
2022-11-05T13:22:27.636Z,3.53
2022-11-05T13:27:34.138Z,4.16
2022-11-05T13:32:40.308Z,4.05
2022-11-05T13:37:46.352Z,4.01
2022-11-05T13:42:52.604Z,3.95
2022-11-05T13:47:58.779Z,3.92
2022-11-05T13:53:04.920Z,4.04
2022-11-05T13:58:10.991Z,3.37
2022-11-05T14:03:17.203Z,3.63
2022-11-05T14:08:23.349Z,3.34
2022-11-05T14:13:29.728Z,3.01
2022-11-05T14:18:35.843Z,3.40
2022-11-05T14:23:42.027Z,3.06
2022-11-05T14:28:48.936Z,3.03
2022-11-05T14:33:56.455Z,3.14
2022-11-05T14:39:04.387Z,3.08
2022-11-05T14:44:07.751Z,3.24
2022-11-05T14:49:13.806Z,3.43
2022-11-05T14:54:20.144Z,3.58
2022-11-05T14:59:26.231Z,3.61
2022-11-05T15:04:32.503Z,4.02
2022-11-05T15:09:38.576Z,3.86
2022-11-05T15:14:44.770Z,4.18
2022-11-05T15:19:50.835Z,3.99
2022-11-05T15:24:57.144Z,3.85
2022-11-05T15:30:03.605Z,3.73
2022-11-05T15:35:09.816Z,4.21
2022-11-05T15:40:16.123Z,4.67
2022-11-05T15:45:22.319Z,4.08
2022-11-05T15:50:28.379Z,4.81
2022-11-05T15:55:34.541Z,4.88
2022-11-05T16:00:40.698Z,5.01
2022-11-05T16:05:46.916Z,5.20
2022-11-05T16:10:53.018Z,5.37
2022-11-05T16:15:59.233Z,5.09
2022-11-05T16:21:05.341Z,6.82
2022-11-05T16:26:11.643Z,5.85
2022-11-05T16:31:17.699Z,6.44
2022-11-05T16:36:23.858Z,5.84
2022-11-05T16:41:29.956Z,6.10
2022-11-05T16:46:36.188Z,6.05
2022-11-05T16:51:42.653Z,6.19
2022-11-05T16:56:48.822Z,6.12
2022-11-05T17:01:55.978Z,6.48
2022-11-05T17:07:00.747Z,6.81
2022-11-05T17:12:06.923Z,6.21
2022-11-05T17:17:13.422Z,6.43
2022-11-05T17:22:19.497Z,6.48
2022-11-05T17:27:25.694Z,6.74
2022-11-05T17:37:36.867Z,6.75
2022-11-05T17:42:42.939Z,6.38
2022-11-05T17:47:49.129Z,6.33
2022-11-05T17:52:55.252Z,6.52
2022-11-05T17:58:01.876Z,6.57
2022-11-05T18:03:07.955Z,6.47
2022-11-05T18:08:14.552Z,6.58
2022-11-05T18:13:20.696Z,7.01
2022-11-05T18:18:26.920Z,6.31
2022-11-05T18:23:32.952Z,6.48
2022-11-05T18:28:39.251Z,6.26
2022-11-05T18:33:45.710Z,6.37
2022-11-05T18:38:51.940Z,6.07
2022-11-05T18:43:57.990Z,6.36
2022-11-05T18:49:04.241Z,7.09
2022-11-05T18:54:10.327Z,6.65
2022-11-05T18:59:35.281Z,6.25
2022-11-05T19:04:22.974Z,6.11
2022-11-05T19:09:29.140Z,7.03
2022-11-05T19:14:35.258Z,6.92
2022-11-05T19:19:41.476Z,5.84
2022-11-05T19:24:47.546Z,6.15
2022-11-05T19:29:53.738Z,6.23
2022-11-05T19:35:00.199Z,6.22
2022-11-05T19:40:06.730Z,6.87
2022-11-05T19:45:38.150Z,7.95
2022-11-05T19:50:18.533Z,7.35
2022-11-05T19:56:19.633Z,7.67
2022-11-05T20:01:25.922Z,6.54
2022-11-05T20:06:31.922Z,6.27
2022-11-05T20:11:38.179Z,6.93
2022-11-05T20:16:44.352Z,6.55
2022-11-05T20:21:50.639Z,6.91
2022-11-05T20:26:57.033Z,6.83
2022-11-05T20:32:03.197Z,6.93
2022-11-05T20:37:09.446Z,7.12
2022-11-05T20:42:15.748Z,6.79
2022-11-05T20:47:21.808Z,7.04
2022-11-05T20:52:28.338Z,6.92
2022-11-05T20:57:34.474Z,7.12
2022-11-05T21:02:40.864Z,7.05
2022-11-05T21:07:47.143Z,7.18
2022-11-05T21:12:53.385Z,7.35
2022-11-05T21:17:59.510Z,6.92
2022-11-05T21:23:05.750Z,6.96
2022-11-05T21:28:12.252Z,6.59
2022-11-05T21:33:17.911Z,7.22
2022-11-05T21:38:24.050Z,6.88
2022-11-05T21:43:30.239Z,6.97
2022-11-05T21:48:36.389Z,6.92
2022-11-05T21:53:42.684Z,6.83
2022-11-05T21:58:49.467Z,6.79
2022-11-05T22:03:57.619Z,6.12
2022-11-05T22:08:59.683Z,6.29
2022-11-05T22:14:06.372Z,5.74
2022-11-05T22:19:12.866Z,6.10
2022-11-05T22:24:19.440Z,6.14
2022-11-05T22:29:25.528Z,6.07
2022-11-05T22:34:31.979Z,5.54
2022-11-05T22:39:38.359Z,5.39
2022-11-05T22:44:44.561Z,5.78
2022-11-05T22:49:50.697Z,5.47
2022-11-05T22:54:56.983Z,5.82
2022-11-05T23:00:03.098Z,5.45
2022-11-05T23:05:10.019Z,5.36
2022-11-05T23:10:16.138Z,5.61
2022-11-05T23:15:22.324Z,5.80
2022-11-05T23:20:28.409Z,5.71
2022-11-05T23:25:34.715Z,5.64
2022-11-05T23:30:40.854Z,5.56
2022-11-05T23:35:47.430Z,5.42
2022-11-05T23:40:53.510Z,5.32
2022-11-05T23:46:00.439Z,5.56
2022-11-05T23:51:06.948Z,5.65
2022-11-05T23:56:13.329Z,5.73
